Data for 01/11/2010

Time Sea-Level Adjusted Pressure Absolute Pressure Temperature Relative Humidity Dew Point   
(mb) (inHg) (mb) (inHg) (C) (F) (%) (C) (F)
00:05 1026 30.3 855 25.25 -2.8 26.9 78 -6.2 20.9
00:10 1026 30.3 855 25.25 -2.8 26.9 78 -6.1 21
00:15 1026 30.3 855 25.25 -3.2 26.3 78 -6.4 20.4
00:20 1026 30.3 855 25.25 -3.9 25 80 -6.8 19.8
00:25 1026 30.3 855 25.25 -4.6 23.7 83 -7 19.4
00:30 1026 30.3 855 25.25 -4.9 23.2 84 -7.2 19
00:35 1026 30.3 855 25.25 -5.4 22.4 86 -7.3 18.8
00:40 1026 30.3 855 25.25 -5.5 22.2 87 -7.3 18.9
00:45 1026 30.3 855 25.25 -5.3 22.4 86 -7.3 18.8
00:50 1025 30.27 855 25.25 -5.3 22.5 86 -7.3 18.9
00:55 1025 30.27 855 25.25 -4.9 23.2 85 -7.1 19.3
01:00 1025 30.27 854 25.22 -4 24.7 84 -6.3 20.6
01:05 1025 30.27 855 25.25 -3.6 25.5 81 -6.4 20.6
01:10 1025 30.27 855 25.25 -3.7 25.3 80 -6.6 20.1
01:15 1025 30.27 855 25.25 -4.4 24.1 82 -7.1 19.2
01:20 1025 30.27 855 25.25 -4.8 23.3 86 -6.9 19.6
01:25 1025 30.27 854 25.22 -4.6 23.7 84 -7 19.4
01:30 1025 30.27 854 25.22 -4.6 23.8 85 -6.8 19.8
01:35 1025 30.27 854 25.22 -4.1 24.6 82 -6.7 20
01:40 1025 30.27 854 25.22 -4.6 23.6 86 -6.7 20
01:45 1025 30.27 854 25.22 -5.1 22.7 86 -7.1 19.2
01:50 1025 30.27 854 25.22 -4.8 23.4 83 -7.2 19.1
01:55 1025 30.27 854 25.22 -4.4 24.1 81 -7.2 19
02:00 1025 30.27 854 25.22 -4.8 23.4 81 -7.5 18.4
02:05 1025 30.27 854 25.22 -4 24.9 79 -7.1 19.3
02:10 1025 30.27 854 25.22 -3.6 25.5 77 -7.1 19.3
02:15 1025 30.27 854 25.22 -3.7 25.4 76 -7.3 18.9
02:20 1025 30.27 854 25.22 -4 24.8 79 -7.2 19.1
02:25 1025 30.27 854 25.22 -4.1 24.6 79 -7.2 19.1
02:30 1025 30.27 854 25.22 -3.7 25.3 80 -6.8 19.8
02:35 1025 30.27 855 25.25 -3.2 26.3 76 -6.7 19.9
02:40 1025 30.27 855 25.25 -3.4 25.9 75 -7.2 19
02:45 1025 30.27 855 25.25 -4 24.8 78 -7.2 19
02:50 1025 30.27 855 25.25 -3.7 25.3 77 -7.2 19.1
02:55 1025 30.27 855 25.25 -3.3 26.1 75 -7.1 19.2
03:00 1025 30.27 854 25.22 -3.9 24.9 78 -7.2 19
03:05 1025 30.27 854 25.22 -4.2 24.5 77 -7.6 18.3
03:10 1025 30.27 855 25.25 -4.1 24.6 78 -7.4 18.7
03:15 1025 30.27 854 25.22 -4 24.9 78 -7.3 18.9
03:20 1025 30.27 854 25.22 -4.1 24.7 79 -7.2 19
03:25 1025 30.27 854 25.22 -4.2 24.4 81 -7.1 19.2
03:30 1025 30.27 854 25.22 -4.2 24.4 81 -7.1 19.3
03:35 1025 30.27 855 25.25 -3.7 25.4 79 -6.8 19.7
03:40 1025 30.27 854 25.22 -3.3 26 78 -6.7 19.9
03:45 1025 30.27 854 25.22 -3.4 25.8 77 -6.9 19.6
03:50 1025 30.27 854 25.22 -3.2 26.3 75 -7 19.5
03:55 1025 30.27 854 25.22 -3.4 26 76 -7 19.5
04:00 1025 30.27 854 25.22 -4 24.8 79 -7.1 19.2
04:05 1025 30.27 854 25.22 -4.3 24.2 79 -7.5 18.5
04:10 1025 30.27 854 25.22 -4.6 23.7 81 -7.4 18.7
04:15 1025 30.27 854 25.22 -4.2 24.5 79 -7.3 18.8
04:20 1025 30.27 854 25.22 -3.6 25.5 77 -7.1 19.3
04:25 1025 30.27 854 25.22 -3.6 25.6 77 -7.1 19.2
04:30 1025 30.27 854 25.22 -3.5 25.8 78 -6.9 19.7
04:35 1025 30.27 854 25.22 -3 26.5 76 -6.7 20
04:40 1025 30.27 854 25.22 -2.9 26.8 75 -6.7 19.9
04:45 1025 30.27 854 25.22 -3.2 26.2 75 -7 19.3
04:50 1025 30.27 854 25.22 -3.4 25.9 76 -7 19.4
04:55 1025 30.27 854 25.22 -3.6 25.5 76 -7.2 19
05:00 1025 30.27 854 25.22 -3.8 25.1 77 -7.3 18.9
05:05 1025 30.27 854 25.22 -3.3 26.1 75 -7.2 19.1
05:10 1025 30.27 854 25.22 -3.6 25.6 76 -7.2 19.1
05:15 1024 30.24 854 25.22 -2.6 27.2 70 -7.3 18.9
05:20 1024 30.24 854 25.22 -2.9 26.8 73 -7.2 19.1
05:25 1024 30.24 853 25.19 -2.9 26.8 73 -7.1 19.2
05:30 1024 30.24 853 25.19 -2.5 27.4 71 -7 19.4
05:35 1024 30.24 853 25.19 -2.3 27.9 70 -7 19.3
05:40 1024 30.24 853 25.19 -2.3 27.8 71 -6.9 19.5
05:45 1024 30.24 853 25.19 -2.1 28.2 69 -7.1 19.1
05:50 1024 30.24 853 25.19 -2.5 27.6 70 -7.2 19.1
05:55 1024 30.24 853 25.19 -3.4 25.9 76 -7 19.4
06:00 1024 30.24 853 25.19 -4.9 23.2 80 -7.8 18
06:05 1024 30.24 853 25.19 -4.6 23.7 79 -7.8 17.9
06:10 1024 30.24 853 25.19 -4.5 23.9 79 -7.6 18.3
06:15 1024 30.24 853 25.19 -5.1 22.9 81 -7.9 17.8
06:20 1024 30.24 853 25.19 -5 23.1 84 -7.3 18.9
06:25 1024 30.24 853 25.19 -4.9 23.1 84 -7.2 19.1
06:30 1024 30.24 853 25.19 -5.3 22.4 85 -7.4 18.6
06:35 1024 30.24 854 25.22 -5.6 21.9 86 -7.6 18.2
06:40 1024 30.24 854 25.22 -5.7 21.7 86 -7.7 18.2
06:45 1024 30.24 854 25.22 -5.3 22.5 85 -7.4 18.6
06:50 1024 30.24 854 25.22 -4.8 23.4 84 -7 19.4
06:55 1024 30.24 853 25.19 -4.5 23.8 82 -7.1 19.2
07:00 1024 30.24 853 25.19 -4.8 23.3 83 -7.3 18.8
07:05 1024 30.24 854 25.22 -5.5 22.1 87 -7.4 18.7
07:10 1024 30.24 853 25.19 -5.7 21.7 87 -7.5 18.4
07:15 1024 30.24 853 25.19 -5.9 21.4 89 -7.4 18.6
07:20 1024 30.24 853 25.19 -5.5 22.2 86 -7.4 18.6
07:25 1024 30.24 853 25.19 -5.4 22.2 87 -7.3 18.9
07:30 1024 30.24 853 25.19 -5.2 22.6 83 -7.6 18.3
07:35 1024 30.24 853 25.19 -5.5 22 83 -7.9 17.7
07:40 1024 30.24 853 25.19 -5.3 22.5 80 -8.2 17.2
07:45 1024 30.24 853 25.19 -5 23.1 82 -7.6 18.3
07:50 1024 30.24 853 25.19 -4.3 24.2 78 -7.5 18.5
07:55 1024 30.24 853 25.19 -3.4 25.9 74 -7.3 18.8
08:00 1024 30.24 853 25.19 -3.4 25.8 75 -7.2 19
08:05 1024 30.24 853 25.19 -3.7 25.3 76 -7.4 18.6
08:10 1024 30.24 853 25.19 -3.9 24.9 75 -7.7 18.1
08:15 1024 30.24 853 25.19 -4.1 24.6 75 -7.8 17.9
08:20 1024 30.24 853 25.19 -3.8 25.2 74 -7.7 18.2
08:25 1024 30.24 853 25.19 -3 26.6 70 -7.7 18.2
08:30 1024 30.24 853 25.19 -2.4 27.7 68 -7.6 18.3
08:35 1024 30.24 853 25.19 -2.1 28.2 66 -7.5 18.4
08:40 1024 30.24 853 25.19 -1.8 28.8 64 -7.6 18.3
08:45 1024 30.24 853 25.19 -1.7 29 65 -7.4 18.7
08:50 1024 30.24 853 25.19 -1.9 28.6 65 -7.6 18.2
08:55 1024 30.24 853 25.19 -2.6 27.3 68 -7.8 18
09:00 1024 30.24 853 25.19 -3 26.5 70 -7.8 17.9
09:05 1024 30.24 853 25.19 -2.5 27.6 66 -7.9 17.8
09:10 1024 30.24 853 25.19 -2.4 27.6 68 -7.5 18.4
09:15 1024 30.24 853 25.19 -2.3 27.8 67 -7.6 18.3
09:20 1023 30.21 853 25.19 -2.3 27.9 67 -7.7 18.2
09:25 1023 30.21 853 25.19 -1.5 29.3 63 -7.6 18.3
09:30 1023 30.21 853 25.19 -1 30.2 61 -7.6 18.3
09:35 1023 30.21 853 25.19 -0.5 31 60 -7.4 18.8
09:40 1023 30.21 853 25.19 -0.7 30.8 60 -7.5 18.5
09:45 1023 30.21 853 25.19 -0.6 30.9 59 -7.6 18.4
09:50 1024 30.24 853 25.19 -0.4 31.3 58 -7.7 18.1
09:55 1024 30.24 853 25.19 -0.4 31.2 59 -7.6 18.4
10:00 1024 30.24 853 25.19 -0.3 31.5 58 -7.6 18.4
10:05 1024 30.24 853 25.19 0.1 32.2 58 -7.3 18.9
10:10 1023 30.21 853 25.19 0.4 32.7 56 -7.4 18.7
10:15 1023 30.21 853 25.19 1 33.9 54 -7.2 19.1
10:20 1023 30.21 853 25.19 1.2 34.1 55 -7 19.4
10:25 1023 30.21 853 25.19 1.5 34.6 53 -7.2 19.1
10:30 1023 30.21 853 25.19 2 35.5 53 -6.7 20
10:35 1023 30.21 853 25.19 2.5 36.5 51 -6.7 19.9
10:40 1023 30.21 853 25.19 2.7 36.9 52 -6.1 21
10:45 1023 30.21 853 25.19 2.7 36.9 53 -6 21.2
10:50 1023 30.21 853 25.19 1.9 35.4 56 -6.1 21
10:55 1023 30.21 853 25.19 1.2 34.2 58 -6.3 20.7
11:00 1023 30.21 853 25.19 1.3 34.4 56 -6.5 20.3
11:05 1023 30.21 852 25.16 0.9 33.7 57 -6.7 19.9
11:10 1023 30.21 852 25.16 1.8 35.3 53 -6.8 19.8
11:15 1023 30.21 852 25.16 2.4 36.3 54 -6.1 21
11:20 1023 30.21 852 25.16 2.6 36.7 51 -6.6 20.1
11:25 1023 30.21 852 25.16 2.4 36.3 52 -6.4 20.4
11:30 1023 30.21 852 25.16 2.7 36.9 50 -6.7 19.9
11:35 1023 30.21 852 25.16 2.6 36.7 53 -6.1 21
11:40 1023 30.21 852 25.16 2.4 36.3 52 -6.5 20.3
11:45 1023 30.21 852 25.16 2.6 36.6 50 -6.7 19.9
11:50 1023 30.21 852 25.16 2.2 36 53 -6.4 20.4
11:55 1023 30.21 852 25.16 2.6 36.7 50 -6.8 19.8
12:00 1022 30.18 852 25.16 3.2 37.8 49 -6.6 20.1
12:05 1022 30.18 852 25.16 3.3 38 49 -6.4 20.6
12:10 1022 30.18 851 25.13 3.3 38 47 -6.8 19.7
12:15 1022 30.18 851 25.13 3.6 38.4 49 -6.2 20.9
12:20 1022 30.18 851 25.13 3.5 38.3 49 -6.2 20.8
12:25 1022 30.18 851 25.13 4.1 39.4 47 -6.1 21
12:30 1022 30.18 851 25.13 4.6 40.2 45 -6.3 20.6
12:35 1022 30.18 851 25.13 5 41 43 -6.4 20.4
12:40 1022 30.18 851 25.13 5 41 43 -6.6 20.2
12:45 1021 30.15 851 25.13 5.4 41.6 41 -6.7 19.9
12:50 1021 30.15 851 25.13 6.1 42.9 41 -6.2 20.8
12:55 1022 30.18 851 25.13 6.3 43.4 42 -5.6 21.9
13:00 1022 30.18 851 25.13 6.6 43.9 42 -5.6 22
13:05 1022 30.18 851 25.13 6.4 43.6 43 -5.4 22.4
13:10 1022 30.18 851 25.13 6 42.7 45 -5 22.9
13:15 1022 30.18 851 25.13 5 41.1 49 -4.7 23.5
13:20 1022 30.18 851 25.13 3.3 38 51 -6 21.3
13:25 1022 30.18 851 25.13 3.1 37.5 51 -6.2 20.9
13:30 1022 30.18 851 25.13 2.8 37 51 -6.3 20.7
13:35 1022 30.18 851 25.13 3.1 37.6 49 -6.6 20.1
13:40 1022 30.18 851 25.13 3.3 37.9 50 -6.2 20.9
13:45 1022 30.18 851 25.13 2.9 37.2 54 -5.4 22.3
13:50 1022 30.18 851 25.13 2.1 35.8 54 -6.3 20.7
13:55 1022 30.18 851 25.13 2.4 36.3 55 -5.8 21.6
14:00 1022 30.18 851 25.13 2.3 36.2 53 -6.2 20.9
14:05 1022 30.18 851 25.13 2.7 36.9 51 -6.4 20.5
14:10 1022 30.18 851 25.13 3.2 37.8 49 -6.6 20.1
14:15 1022 30.18 851 25.13 3.8 38.8 47 -6.5 20.4
14:20 1022 30.18 851 25.13 4.1 39.3 47 -6.3 20.6
14:25 1022 30.18 851 25.13 4.3 39.7 46 -6.4 20.6
14:30 1022 30.18 851 25.13 4.7 40.4 43 -6.9 19.7
14:35 1022 30.18 851 25.13 5.2 41.3 40 -7.2 19
14:40 1022 30.18 851 25.13 5.3 41.5 43 -6.4 20.5
14:45 1022 30.18 851 25.13 5.5 41.8 41 -6.8 19.7
14:50 1022 30.18 851 25.13 6.1 42.9 40 -6.6 20.1
14:55 1022 30.18 851 25.13 6 42.8 40 -6.6 20.2
15:00 1022 30.18 851 25.13 6.4 43.6 43 -5.1 22.7
15:05 1022 30.18 851 25.13 6.1 43.1 43 -5.5 22
15:10 1022 30.18 851 25.13 5.5 41.9 45 -5.5 22.1
15:15 1022 30.18 851 25.13 5.7 42.2 44 -5.7 21.7
15:20 1022 30.18 851 25.13 5.7 42.3 44 -5.5 22.2
15:25 1022 30.18 851 25.13 5.8 42.4 44 -5.7 21.8
15:30 1022 30.18 851 25.13 5.8 42.4 43 -5.9 21.4
15:35 1022 30.18 851 25.13 5.4 41.7 46 -5.5 22.2
15:40 1022 30.18 851 25.13 5 41.1 45 -5.9 21.5
15:45 1022 30.18 851 25.13 5.7 42.3 41 -6.6 20.1
15:50 1022 30.18 851 25.13 6 42.8 40 -6.5 20.3
15:55 1022 30.18 851 25.13 5.8 42.4 42 -6.3 20.7
16:00 1022 30.18 851 25.13 6 42.7 38 -7.1 19.2
16:05 1022 30.18 851 25.13 6.6 43.8 39 -6.5 20.3
16:10 1022 30.18 851 25.13 6.3 43.4 42 -5.5 22.1
16:15 1022 30.18 851 25.13 5.5 41.8 44 -5.8 21.6
16:20 1022 30.18 851 25.13 4.3 39.8 47 -6 21.2
16:25 1022 30.18 851 25.13 3.6 38.6 51 -5.7 21.8
16:30 1022 30.18 851 25.13 3.2 37.8 52 -5.7 21.7
16:35 1022 30.18 851 25.13 3 37.5 51 -6 21.2
16:40 1022 30.18 851 25.13 3 37.4 51 -6.2 20.9
16:45 1022 30.18 851 25.13 2.9 37.2 51 -6.2 20.8
16:50 1022 30.18 851 25.13 2.9 37.3 51 -6.1 20.9
16:55 1022 30.18 851 25.13 2.5 36.4 53 -6 21.1
17:00 1022 30.18 851 25.13 2.1 35.7 53 -6.5 20.3
17:05 1022 30.18 851 25.13 2.5 36.4 53 -6.2 20.9
17:10 1022 30.18 851 25.13 2.2 36 55 -5.9 21.4
17:15 1022 30.18 851 25.13 2.3 36.2 56 -5.6 21.9
17:20 1022 30.18 851 25.13 2.5 36.4 57 -5.3 22.5
17:25 1022 30.18 851 25.13 2.5 36.4 55 -5.7 21.8
17:30 1022 30.18 851 25.13 2.6 36.8 54 -5.7 21.7
17:35 1022 30.18 851 25.13 2.6 36.7 52 -6.2 20.8
17:40 1022 30.18 851 25.13 2.5 36.5 54 -6 21.2
17:45 1022 30.18 851 25.13 2.1 35.7 56 -5.8 21.5
17:50 1022 30.18 851 25.13 2.1 35.7 59 -5.1 22.8
17:55 1021 30.15 851 25.13 1.8 35.2 61 -4.9 23.2
18:00 1021 30.15 851 25.13 1.4 34.5 60 -5.6 22
18:05 1021 30.15 851 25.13 2 35.7 57 -5.6 22
18:10 1021 30.15 851 25.13 2.1 35.8 56 -5.8 21.6
18:15 1021 30.15 851 25.13 2.4 36.3 53 -6.4 20.6
18:20 1021 30.15 851 25.13 2.1 35.7 55 -6.1 21
18:25 1021 30.15 851 25.13 1.7 35 59 -5.6 22
18:30 1021 30.15 851 25.13 2.6 36.6 55 -5.5 22.1
18:35 1021 30.15 851 25.13 2.3 36.1 57 -5.3 22.4
18:40 1021 30.15 851 25.13 2.3 36.2 57 -5.2 22.6
18:45 1021 30.15 851 25.13 2.2 36 58 -5.1 22.8
18:50 1021 30.15 851 25.13 1.5 34.6 63 -4.8 23.3
18:55 1021 30.15 850 25.1 0.8 33.4 64 -5.3 22.4
19:00 1021 30.15 851 25.13 1.6 34.9 59 -5.6 21.9
19:05 1021 30.15 851 25.13 1.4 34.5 61 -5.3 22.4
19:10 1021 30.15 851 25.13 1.3 34.3 62 -5.1 22.8
19:15 1021 30.15 850 25.1 1.7 35.1 63 -4.7 23.6
19:20 1021 30.15 851 25.13 1.9 35.4 62 -4.7 23.5
19:25 1021 30.15 851 25.13 1.8 35.3 62 -4.7 23.5
19:30 1021 30.15 850 25.1 1.3 34.4 65 -4.5 23.8
19:35 1021 30.15 850 25.1 1.1 33.9 65 -4.8 23.4
19:40 1021 30.15 850 25.1 0.7 33.2 67 -4.8 23.3
19:45 1021 30.15 850 25.1 0.4 32.8 68 -4.8 23.4
19:50 1021 30.15 850 25.1 1 33.7 65 -4.8 23.3
19:55 1021 30.15 850 25.1 0.9 33.7 63 -5.3 22.4
20:00 1021 30.15 850 25.1 1.3 34.3 62 -5.3 22.4
20:05 1021 30.15 850 25.1 1.8 35.2 62 -4.9 23.3
20:10 1021 30.15 850 25.1 2.1 35.7 58 -5.3 22.5
20:15 1021 30.15 850 25.1 2.3 36.2 59 -5 23
20:20 1021 30.15 850 25.1 2.1 35.8 58 -5.4 22.4
20:25 1021 30.15 850 25.1 3.2 37.7 54 -5.2 22.6
20:30 1021 30.15 850 25.1 2.4 36.3 57 -5.2 22.7
20:35 1021 30.15 850 25.1 2.2 35.9 57 -5.4 22.3
20:40 1021 30.15 850 25.1 2.6 36.6 56 -5.4 22.2
20:45 1021 30.15 850 25.1 3.2 37.8 53 -5.3 22.4
20:50 1021 30.15 850 25.1 2.9 37.1 56 -5 23
20:55 1021 30.15 850 25.1 2.6 36.7 55 -5.6 21.9
21:00 1021 30.15 850 25.1 3 37.4 54 -5.4 22.3
21:05 1021 30.15 850 25.1 3.1 37.6 53 -5.5 22.1
21:10 1021 30.15 850 25.1 2.4 36.4 56 -5.4 22.3
21:15 1021 30.15 850 25.1 1.8 35.3 58 -5.6 22
21:20 1021 30.15 850 25.1 1.5 34.7 58 -5.9 21.3
21:25 1021 30.15 850 25.1 1.2 34.1 60 -5.8 21.5
21:30 1021 30.15 850 25.1 1 33.8 59 -6.1 21.1
21:35 1021 30.15 850 25.1 0.9 33.6 61 -5.8 21.5
21:40 1021 30.15 850 25.1 1 33.7 60 -5.9 21.4
21:45 1021 30.15 850 25.1 1.1 33.9 60 -5.9 21.4
21:50 1021 30.15 850 25.1 1.9 35.5 55 -6.1 21.1
21:55 1021 30.15 850 25.1 2.4 36.4 55 -5.8 21.5
22:00 1021 30.15 850 25.1 2.4 36.2 55 -5.9 21.5
22:05 1021 30.15 850 25.1 2.1 35.7 55 -5.9 21.3
22:10 1021 30.15 850 25.1 1.7 35.1 58 -5.8 21.6
22:15 1021 30.15 850 25.1 1.5 34.6 59 -5.6 21.9
22:20 1021 30.15 850 25.1 1.6 34.8 59 -5.5 22.1
22:25 1021 30.15 850 25.1 1.6 34.9 59 -5.6 21.9
22:30 1021 30.15 850 25.1 1.6 34.8 59 -5.6 21.8
22:35 1021 30.15 850 25.1 1.2 34.2 61 -5.5 22.1
22:40 1021 30.15 850 25.1 0.7 33.3 62 -5.7 21.7
22:45 1021 30.15 850 25.1 0.7 33.3 62 -5.8 21.5
22:50 1020 30.12 850 25.1 0.9 33.7 63 -5.3 22.5
22:55 1020 30.12 850 25.1 0.9 33.6 63 -5.4 22.2
23:00 1021 30.15 850 25.1 0.7 33.3 62 -5.7 21.7
23:05 1020 30.12 850 25.1 0.4 32.7 63 -5.9 21.4
23:10 1020 30.12 850 25.1 0.3 32.5 62 -6.2 20.9
23:15 1020 30.12 850 25.1 0.6 33.1 62 -5.9 21.4
23:20 1020 30.12 850 25.1 1.4 34.5 58 -5.9 21.3
23:25 1020 30.12 850 25.1 1.9 35.5 57 -5.7 21.8
23:30 1020 30.12 850 25.1 1.8 35.3 59 -5.4 22.3
23:35 1020 30.12 850 25.1 1.5 34.6 59 -5.6 21.9
23:40 1020 30.12 850 25.1 1.2 34.1 60 -5.7 21.8
23:45 1020 30.12 850 25.1 1.2 34.1 60 -5.7 21.7
23:50 1020 30.12 850 25.1 1.6 35 57 -5.9 21.4
23:55 1020 30.12 850 25.1 2.3 36.1 55 -5.7 21.7
24:00 1020 30.12 850 25.1 1.2 34.2 62 -5.3 22.5